createdAt,value
2023-02-12T00:04:49.502Z,4.70
2023-02-12T00:09:53.017Z,5.73
2023-02-12T00:14:57.858Z,4.70
2023-02-12T00:20:01.333Z,5.83
2023-02-12T00:25:04.979Z,5.50
2023-02-12T00:30:11.083Z,4.80
2023-02-12T00:35:15.438Z,5.10
2023-02-12T00:40:18.967Z,4.33
2023-02-12T00:45:23.752Z,4.60
2023-02-12T00:50:30.704Z,4.50
2023-02-12T00:55:37.219Z,4.50
2023-02-12T01:00:42.076Z,5.00
2023-02-12T01:05:53.259Z,4.63
2023-02-12T01:11:01.327Z,4.33
2023-02-12T01:16:11.061Z,4.83
2023-02-12T01:21:17.771Z,4.97
2023-02-12T01:26:22.040Z,4.87
2023-02-12T01:31:30.778Z,4.73
2023-02-12T01:36:35.071Z,3.90
2023-02-12T01:41:41.611Z,5.00
2023-02-12T01:46:47.673Z,5.17
2023-02-12T01:51:53.680Z,4.77
2023-02-12T01:56:57.551Z,4.77
2023-02-12T02:02:02.700Z,5.07
2023-02-12T02:07:08.348Z,4.97
2023-02-12T02:12:30.284Z,4.93
2023-02-12T02:17:55.693Z,4.63
2023-02-12T02:23:11.773Z,4.93
2023-02-12T02:28:46.375Z,4.80
2023-02-12T02:33:57.865Z,4.97
2023-02-12T02:39:07.583Z,4.93
2023-02-12T02:44:15.453Z,5.13
2023-02-12T02:49:26.494Z,5.23
2023-02-12T02:54:34.548Z,5.30
2023-02-12T02:59:43.088Z,4.73
2023-02-12T03:04:52.116Z,5.40
2023-02-12T03:10:00.185Z,5.73
2023-02-12T03:15:10.051Z,5.23
2023-02-12T03:20:19.456Z,5.20
2023-02-12T03:25:27.173Z,4.80
2023-02-12T03:30:41.848Z,4.93
2023-02-12T03:35:56.861Z,5.47
2023-02-12T03:41:06.265Z,5.10
2023-02-12T03:46:17.263Z,5.67
2023-02-12T03:51:26.029Z,6.40
2023-02-12T03:56:36.220Z,6.97
2023-02-12T04:01:39.779Z,6.30
2023-02-12T04:06:46.837Z,6.87
2023-02-12T04:12:09.440Z,6.43
2023-02-12T04:17:21.700Z,6.50
2023-02-12T04:22:36.480Z,5.77
2023-02-12T04:27:51.649Z,5.27
2023-02-12T04:32:59.272Z,5.83
2023-02-12T04:38:11.856Z,5.67
2023-02-12T04:43:15.915Z,5.87
2023-02-12T04:48:20.583Z,5.87
2023-02-12T04:53:25.373Z,4.83
2023-02-12T04:58:28.818Z,5.43
2023-02-12T05:03:32.275Z,6.47
2023-02-12T05:08:37.618Z,4.80
2023-02-12T05:13:42.008Z,5.60
2023-02-12T05:18:45.434Z,5.60
2023-02-12T05:23:50.292Z,5.27
2023-02-12T05:28:53.927Z,5.47
2023-02-12T05:33:57.311Z,4.93
2023-02-12T05:39:02.160Z,5.50
2023-02-12T05:44:06.706Z,5.47
2023-02-12T05:49:10.218Z,6.07
2023-02-12T05:54:15.089Z,5.10
2023-02-12T05:59:21.309Z,4.90
2023-02-12T06:04:26.929Z,5.27
2023-02-12T06:09:32.120Z,6.00
2023-02-12T06:14:35.641Z,6.57
2023-02-12T06:19:39.106Z,5.20
2023-02-12T06:24:43.907Z,5.63
2023-02-12T06:29:47.561Z,5.43
2023-02-12T06:34:51.301Z,5.63
2023-02-12T06:39:56.276Z,6.17
2023-02-12T06:44:59.886Z,5.83
2023-02-12T06:50:03.211Z,5.27
2023-02-12T06:55:08.725Z,5.50
2023-02-12T07:00:13.637Z,6.17
2023-02-12T07:05:19.267Z,5.80
2023-02-12T07:10:24.034Z,6.43
2023-02-12T07:15:27.447Z,6.17
2023-02-12T07:20:31.053Z,5.20
2023-02-12T07:25:35.816Z,5.27
2023-02-12T07:30:42.497Z,5.73
2023-02-12T07:35:46.495Z,6.03
2023-02-12T07:40:51.603Z,6.10
2023-02-12T07:45:55.418Z,6.60
2023-02-12T07:51:06.660Z,5.87
2023-02-12T07:56:13.552Z,6.30
2023-02-12T08:01:19.695Z,6.30
2023-02-12T08:06:24.947Z,5.10
2023-02-12T08:11:30.915Z,5.33
2023-02-12T08:16:39.152Z,5.20
2023-02-12T08:21:42.975Z,4.93
2023-02-12T08:26:50.241Z,5.03
2023-02-12T08:31:58.583Z,4.77
2023-02-12T08:37:02.915Z,4.83
2023-02-12T08:42:08.254Z,5.57
2023-02-12T08:47:11.743Z,5.80
2023-02-12T08:52:15.525Z,5.17
2023-02-12T08:57:20.496Z,4.77
2023-02-12T09:02:23.839Z,5.10
2023-02-12T09:07:27.479Z,5.57
2023-02-12T09:12:32.225Z,6.13
2023-02-12T09:17:35.828Z,5.40
2023-02-12T09:22:39.159Z,5.43
2023-02-12T09:27:44.081Z,5.53
2023-02-12T09:32:47.452Z,5.57
2023-02-12T09:37:51.243Z,5.10
2023-02-12T09:43:05.947Z,4.47
2023-02-12T09:48:21.865Z,4.10
2023-02-12T09:53:29.098Z,4.53
2023-02-12T09:58:38.087Z,4.00
2023-02-12T10:03:41.798Z,4.17
2023-02-12T10:09:01.958Z,4.28
2023-02-12T10:14:19.672Z,3.63
2023-02-12T10:19:32.514Z,3.45
2023-02-12T10:24:58.906Z,3.47
2023-02-12T10:30:06.143Z,3.78
2023-02-12T10:35:16.036Z,3.55
2023-02-12T10:40:24.271Z,3.92
2023-02-12T10:45:32.961Z,3.55
2023-02-12T10:50:59.144Z,3.25
2023-02-12T10:56:17.512Z,3.42
2023-02-12T11:01:28.330Z,3.40
2023-02-12T11:06:33.699Z,3.65
2023-02-12T11:11:40.214Z,4.03
2023-02-12T11:16:54.487Z,3.75
2023-02-12T11:22:07.717Z,3.42
2023-02-12T11:27:24.825Z,3.22
2023-02-12T11:32:30.475Z,2.95
2023-02-12T11:37:36.964Z,2.55
2023-02-12T11:42:43.822Z,3.10
2023-02-12T11:47:49.691Z,3.83
2023-02-12T11:52:55.727Z,2.95
2023-02-12T11:58:05.884Z,3.25
2023-02-12T12:03:17.454Z,3.40
2023-02-12T12:08:27.236Z,3.30
2023-02-12T12:13:36.495Z,3.38
2023-02-12T12:19:06.238Z,3.40
2023-02-12T12:24:17.637Z,3.97
2023-02-12T12:29:27.986Z,3.88
2023-02-12T12:34:36.844Z,5.15
2023-02-12T12:39:54.406Z,3.78
2023-02-12T12:45:22.384Z,5.25
2023-02-12T12:50:54.711Z,4.88
2023-02-12T12:56:41.035Z,4.90
2023-02-12T13:02:29.822Z,4.78
2023-02-12T13:07:53.003Z,4.05
2023-02-12T13:13:11.360Z,3.42
2023-02-12T13:18:25.398Z,3.17
2023-02-12T13:23:40.106Z,3.30
2023-02-12T13:28:48.715Z,3.92
2023-02-12T13:33:57.896Z,4.00
2023-02-12T13:39:12.594Z,3.97
2023-02-12T13:44:26.634Z,4.30
2023-02-12T13:49:42.885Z,4.05
2023-02-12T13:54:59.907Z,3.78
2023-02-12T14:00:08.460Z,3.72
2023-02-12T14:05:31.504Z,4.60
2023-02-12T14:10:40.369Z,4.82
2023-02-12T14:15:47.202Z,4.63
2023-02-12T14:21:17.586Z,4.75
2023-02-12T14:26:26.208Z,4.85
2023-02-12T14:31:41.781Z,4.10
2023-02-12T14:36:47.330Z,4.20
2023-02-12T14:42:37.223Z,4.20
2023-02-12T14:47:57.041Z,4.32
2023-02-12T14:53:08.719Z,5.20
2023-02-12T14:58:20.756Z,4.47
2023-02-12T15:03:31.468Z,5.00
2023-02-12T15:08:43.950Z,4.18
2023-02-12T15:13:59.051Z,4.47
2023-02-12T15:19:12.889Z,4.30
2023-02-12T15:24:25.977Z,4.80
2023-02-12T15:29:37.992Z,4.60
2023-02-12T15:34:43.439Z,3.67
2023-02-12T15:39:49.909Z,4.53
2023-02-12T15:45:36.155Z,4.45
2023-02-12T15:50:51.840Z,4.35
2023-02-12T15:55:57.680Z,4.53
2023-02-12T16:01:07.202Z,4.47
2023-02-12T16:06:14.501Z,4.30
2023-02-12T16:11:23.066Z,4.60
2023-02-12T16:16:31.282Z,3.70
2023-02-12T16:21:39.976Z,4.10
2023-02-12T16:26:49.740Z,5.47
2023-02-12T16:32:02.992Z,4.75
2023-02-12T16:37:52.982Z,5.53
2023-02-12T16:43:25.849Z,4.77
2023-02-12T16:48:35.021Z,3.78
2023-02-12T16:53:48.389Z,5.35
2023-02-12T16:58:55.760Z,5.18
2023-02-12T17:04:06.820Z,5.32
2023-02-12T17:09:17.542Z,5.22
2023-02-12T17:14:23.571Z,5.25
2023-02-12T17:19:30.375Z,5.22
2023-02-12T17:24:37.516Z,5.60
2023-02-12T17:29:43.452Z,5.17
2023-02-12T17:34:53.856Z,3.60
2023-02-12T17:39:59.056Z,4.60
2023-02-12T17:45:04.411Z,5.00
2023-02-12T17:50:14.691Z,5.80
2023-02-12T17:55:23.079Z,6.30
2023-02-12T18:00:30.454Z,5.13
2023-02-12T18:05:41.685Z,4.70
2023-02-12T18:10:48.713Z,4.87
2023-02-12T18:15:54.483Z,4.50
2023-02-12T18:21:03.561Z,5.17
2023-02-12T18:26:11.945Z,5.13
2023-02-12T18:31:18.148Z,5.10
2023-02-12T18:36:26.066Z,5.25
2023-02-12T18:41:33.475Z,5.73
2023-02-12T18:46:39.151Z,4.70
2023-02-12T18:51:47.145Z,5.00
2023-02-12T18:56:55.495Z,5.15
2023-02-12T19:02:04.806Z,5.90
2023-02-12T19:07:13.256Z,5.72
2023-02-12T19:12:18.676Z,5.40
2023-02-12T19:17:25.420Z,6.18
2023-02-12T19:22:31.916Z,4.63
2023-02-12T19:27:40.353Z,5.20
2023-02-12T19:32:46.941Z,4.37
2023-02-12T19:37:55.837Z,4.10
2023-02-12T19:43:03.903Z,4.90
2023-02-12T19:48:10.746Z,4.20
2023-02-12T19:53:18.924Z,4.60
2023-02-12T19:58:25.538Z,10.82
2023-02-12T20:03:34.290Z,5.47
2023-02-12T20:08:44.604Z,5.32
2023-02-12T20:13:51.132Z,5.03
2023-02-12T20:18:57.055Z,4.95
2023-02-12T20:24:04.453Z,5.10
2023-02-12T20:29:09.094Z,5.18
2023-02-12T20:34:16.718Z,5.07
2023-02-12T20:39:25.519Z,4.17
2023-02-12T20:44:30.113Z,4.10
2023-02-12T20:49:34.623Z,3.92
2023-02-12T20:54:41.957Z,3.63
2023-02-12T20:59:47.766Z,3.72
2023-02-12T21:04:52.995Z,4.30
2023-02-12T21:09:59.232Z,4.55
2023-02-12T21:15:04.666Z,5.57
2023-02-12T21:20:11.649Z,5.72
2023-02-12T21:25:18.580Z,5.20
2023-02-12T21:30:24.463Z,5.10
2023-02-12T21:35:29.660Z,5.03
2023-02-12T21:40:35.769Z,5.00
2023-02-12T21:45:40.973Z,4.60
2023-02-12T21:50:45.039Z,6.25
2023-02-12T21:55:50.365Z,5.47
2023-02-12T22:00:54.141Z,5.30
2023-02-12T22:06:01.390Z,5.47
2023-02-12T22:11:07.226Z,5.55
2023-02-12T22:16:12.334Z,5.38
2023-02-12T22:21:18.309Z,5.63
2023-02-12T22:26:26.062Z,5.60
2023-02-12T22:31:31.331Z,4.67
2023-02-12T22:36:37.138Z,5.60
2023-02-12T22:41:43.851Z,5.60
2023-02-12T22:46:47.372Z,5.30
2023-02-12T22:51:50.749Z,4.57
2023-02-12T22:56:55.542Z,5.20
2023-02-12T23:02:03.287Z,4.80
2023-02-12T23:07:06.814Z,4.60
2023-02-12T23:12:11.825Z,4.70
2023-02-12T23:17:15.154Z,4.53
2023-02-12T23:22:18.538Z,4.60
2023-02-12T23:27:23.359Z,4.50
2023-02-12T23:32:26.674Z,4.00
2023-02-12T23:37:30.375Z,4.87
2023-02-12T23:42:35.096Z,4.60
2023-02-12T23:47:38.358Z,4.90
2023-02-12T23:52:41.660Z,5.18
2023-02-12T23:57:46.471Z,5.80
